Time;durP1;ratioP1;P1;durP2;ratioP2;P2;SDS_P1;SDS_P2;PMS_P1;PMS_P2;Temp;Humidity;BMP_temperature;BMP_pressure;BME280_temperature;BME280_humidity;BME280_pressure;Samples;Min_cycle;Max_cycle;Signal;HPM_P1;HPM_P2
2024/03/11 00:00:38;;;;;;;40.92;30.80;;;;;;;7.63;100.00;99615.75;5043901;28;20488;-68
2024/03/11 00:03:05;;;;;;;40.90;31.02;;;;;;;7.58;100.00;99622.75;5044587;28;20401;-68
2024/03/11 00:05:31;;;;;;;42.42;31.20;;;;;;;7.47;100.00;99619.28;5042995;28;20041;-68
2024/03/11 00:07:57;;;;;;;39.58;29.33;;;;;;;7.35;100.00;99624.56;5045116;28;20498;-75
2024/03/11 00:10:23;;;;;;;41.92;31.60;;;;;;;7.29;100.00;99620.19;5041990;28;20532;-70
2024/03/11 00:12:53;;;;;;;43.15;32.13;;;;;;;7.19;100.00;99621.09;5045155;28;20083;-71
2024/03/11 00:15:23;;;;;;;44.72;33.33;;;;;;;7.18;100.00;99628.13;5042145;28;20029;-70
2024/03/11 00:17:49;;;;;;;43.75;33.33;;;;;;;7.27;100.00;99628.09;5045309;28;20132;-69
2024/03/11 00:20:15;;;;;;;43.90;34.13;;;;;;;7.26;100.00;99628.94;5040842;28;20049;-69
2024/03/11 00:22:41;;;;;;;44.97;33.85;;;;;;;7.39;100.00;99631.59;5043903;28;20136;-68
2024/03/11 00:25:08;;;;;;;44.58;33.40;;;;;;;7.41;100.00;99627.19;5043630;28;20495;-69
2024/03/11 00:27:36;;;;;;;43.55;33.00;;;;;;;7.45;100.00;99626.31;5042741;28;20567;-71
2024/03/11 00:30:08;;;;;;;43.03;33.15;;;;;;;7.45;100.00;99634.19;5044324;28;20506;-69
2024/03/11 00:32:35;;;;;;;42.83;33.22;;;;;;;7.41;100.00;99638.59;5042978;28;20044;-69
2024/03/11 00:35:02;;;;;;;43.25;33.30;;;;;;;7.38;100.00;99640.34;5043278;28;20021;-71
2024/03/11 00:37:27;;;;;;;42.58;32.55;;;;;;;7.27;100.00;99627.22;5042093;28;20087;-72
2024/03/11 00:39:53;;;;;;;43.38;33.45;;;;;;;7.18;100.00;99633.38;5045169;28;20108;-70
2024/03/11 00:42:18;;;;;;;44.38;33.95;;;;;;;7.16;100.00;99632.47;5041777;28;20036;-71
2024/03/11 00:44:48;;;;;;;45.35;34.50;;;;;;;7.19;100.00;99624.59;5044057;28;20040;-68
2024/03/11 00:47:14;;;;;;;46.28;35.78;;;;;;;7.20;100.00;99631.59;5042107;28;20503;-68
2024/03/11 00:49:39;;;;;;;45.75;35.50;;;;;;;7.25;100.00;99631.59;5043449;28;20116;-70
2024/03/11 00:52:05;;;;;;;45.22;35.25;;;;;;;7.28;100.00;99632.47;5042215;28;20357;-81
2024/03/11 00:54:30;;;;;;;45.35;34.45;;;;;;;7.33;100.00;99635.09;5041009;28;20057;-69
2024/03/11 00:56:56;;;;;;;45.85;34.60;;;;;;;7.37;100.00;99628.97;5044706;28;20040;-73
2024/03/11 00:59:22;;;;;;;44.40;34.50;;;;;;;7.43;100.00;99638.59;5040095;28;20451;-69
2024/03/11 01:01:47;;;;;;;46.92;34.05;;;;;;;7.44;100.00;99642.94;5044802;28;20040;-68
2024/03/11 01:04:14;;;;;;;44.28;34.83;;;;;;;7.45;100.00;99636.81;5042152;28;20035;-71
2024/03/11 01:06:40;;;;;;;44.25;34.15;;;;;;;7.49;100.00;99634.16;5042978;28;20029;-70
2024/03/11 01:09:05;;;;;;;44.72;34.20;;;;;;;7.51;100.00;99626.28;5042885;28;20033;-70
2024/03/11 01:11:31;;;;;;;44.53;34.30;;;;;;;7.55;100.00;99637.69;5023853;28;20021;-69
2024/03/11 01:13:57;;;;;;;43.85;33.38;;;;;;;7.51;100.00;99636.78;5044038;28;20099;-69
2024/03/11 01:16:22;;;;;;;43.97;33.63;;;;;;;7.53;100.00;99642.06;5040925;28;20034;-69
2024/03/11 01:18:49;;;;;;;43.60;33.88;;;;;;;7.54;100.00;99646.44;5043952;28;20032;-71
2024/03/11 01:21:16;;;;;;;45.22;34.72;;;;;;;7.56;100.00;99640.31;5040002;28;20141;-69
2024/03/11 01:23:44;;;;;;;44.97;34.05;;;;;;;7.61;100.00;99646.41;5043291;28;20395;-70
2024/03/11 01:26:10;;;;;;;46.25;35.22;;;;;;;7.62;100.00;99645.53;5042089;28;20029;-70
2024/03/11 01:28:36;;;;;;;43.83;33.83;;;;;;;7.66;100.00;99638.53;5042087;28;20083;-73
2024/03/11 01:31:04;;;;;;;43.85;33.90;;;;;;;7.71;100.00;99649.91;5042172;28;20033;-68
2024/03/11 01:33:30;;;;;;;45.22;34.47;;;;;;;7.66;100.00;99647.28;5041122;28;20025;-69
2024/03/11 01:35:56;;;;;;;43.67;33.88;;;;;;;7.60;100.00;99647.31;5039953;28;20075;-70
2024/03/11 01:38:21;;;;;;;44.88;34.72;;;;;;;7.57;100.00;99641.16;5044250;28;20033;-69
2024/03/11 01:40:47;;;;;;;44.38;33.50;;;;;;;7.53;100.00;99637.69;5040820;28;20029;-68
2024/03/11 01:43:14;;;;;;;44.00;33.72;;;;;;;7.50;100.00;99641.19;5042898;28;20037;-70
2024/03/11 01:45:40;;;;;;;43.28;33.30;;;;;;;7.45;100.00;99636.81;5042014;28;20086;-69
2024/03/11 01:48:09;;;;;;;43.45;32.97;;;;;;;7.37;100.00;99639.47;5041913;28;20080;-70
2024/03/11 01:50:36;;;;;;;43.92;33.78;;;;;;;7.27;100.00;99643.84;5042888;28;20033;-70
2024/03/11 01:53:03;;;;;;;44.33;33.42;;;;;;;7.25;100.00;99643.00;5041530;28;20049;-68
2024/03/11 01:55:30;;;;;;;44.25;33.97;;;;;;;7.24;100.00;99638.59;5043501;28;20368;-68
2024/03/11 01:57:59;;;;;;;45.22;35.20;;;;;;;7.26;100.00;99641.22;5040987;28;20036;-68
2024/03/11 02:00:24;;;;;;;45.67;35.35;;;;;;;7.28;100.00;99640.38;5048083;28;20025;-68
2024/03/11 02:02:53;;;;;;;46.85;35.85;;;;;;;7.29;100.00;99630.72;5043134;28;20029;-68
2024/03/11 02:05:20;;;;;;;47.17;37.05;;;;;;;7.28;100.00;99644.72;5046213;28;20102;-68
2024/03/11 02:07:50;;;;;;;46.30;36.03;;;;;;;7.27;100.00;99643.84;5044968;28;20048;-69
2024/03/11 02:10:15;;;;;;;48.22;37.15;;;;;;;7.20;100.00;99641.25;5047033;28;20458;-69
2024/03/11 02:12:42;;;;;;;46.53;36.55;;;;;;;7.20;100.00;99643.88;5045465;28;20025;-71
2024/03/11 02:15:11;;;;;;;47.22;36.15;;;;;;;7.15;100.00;99636.88;5045913;28;20038;-69
2024/03/11 02:17:42;;;;;;;48.38;37.80;;;;;;;7.10;100.00;99645.63;5046310;28;20035;-85
2024/03/11 02:20:15;;;;;;;49.15;37.55;;;;;;;7.08;100.00;99650.88;5045596;28;20049;-81
2024/03/11 02:22:45;;;;;;;47.38;37.25;;;;;;;7.05;100.00;99645.63;5045338;28;20071;-83
2024/03/11 02:25:27;;;;;;;48.42;37.55;;;;;;;7.11;100.00;99650.03;5046227;28;20384;-84
2024/03/11 02:28:03;;;;;;;49.45;38.15;;;;;;;7.04;100.00;99645.63;5040637;28;20057;-85
2024/03/11 02:30:29;;;;;;;50.65;39.28;;;;;;;6.94;100.00;99640.38;5041792;28;20037;-85
2024/03/11 02:32:55;;;;;;;50.55;39.35;;;;;;;6.93;100.00;99643.00;5047532;28;20368;-82
2024/03/11 02:35:21;;;;;;;50.83;39.15;;;;;;;6.93;100.00;99653.50;5044060;28;20458;-68
2024/03/11 02:37:48;;;;;;;48.50;38.72;;;;;;;6.90;100.00;99649.16;5028934;28;20104;-69
2024/03/11 02:40:17;;;;;;;50.83;39.15;;;;;;;6.95;100.00;99649.16;5027094;28;20033;-68
2024/03/11 02:42:42;;;;;;;50.67;39.22;;;;;;;6.96;100.00;99643.88;5044704;28;20017;-69
2024/03/11 02:45:13;;;;;;;50.70;39.22;;;;;;;6.98;100.00;99649.13;5045414;28;20074;-68
2024/03/11 02:47:38;;;;;;;51.45;38.88;;;;;;;6.97;100.00;99643.03;5045001;28;20040;-68
2024/03/11 02:50:08;;;;;;;52.45;39.33;;;;;;;6.96;100.00;99643.88;5045739;28;20029;-69
2024/03/11 02:52:34;;;;;;;49.78;38.88;;;;;;;7.01;100.00;99648.28;5043714;28;20087;-71
2024/03/11 02:55:01;;;;;;;50.92;39.63;;;;;;;7.02;100.00;99647.38;5046304;28;20040;-68
2024/03/11 02:57:28;;;;;;;51.72;39.72;;;;;;;7.04;100.00;99650.91;5042100;28;20461;-69
2024/03/11 02:59:54;;;;;;;51.35;39.70;;;;;;;7.06;100.00;99654.38;5047361;28;20041;-68
2024/03/11 03:02:19;;;;;;;51.83;40.20;;;;;;;7.07;100.00;99657.00;5046395;28;20379;-68
2024/03/11 03:04:46;;;;;;;50.90;39.47;;;;;;;7.10;100.00;99653.50;5043950;28;20111;-70
2024/03/11 03:07:13;;;;;;;51.65;40.10;;;;;;;7.09;100.00;99659.63;5043956;28;20514;-68
2024/03/11 03:09:39;;;;;;;52.85;40.42;;;;;;;7.08;100.00;99666.66;5043572;28;20079;-69
2024/03/11 03:12:05;;;;;;;50.83;39.83;;;;;;;7.11;100.00;99661.41;5044188;28;20026;-68
2024/03/11 03:14:31;;;;;;;51.90;40.78;;;;;;;7.09;100.00;99665.78;5046337;28;20383;-68
2024/03/11 03:16:57;;;;;;;52.75;41.40;;;;;;;7.12;100.00;99665.78;5043044;28;20029;-70
2024/03/11 03:19:23;;;;;;;53.25;40.72;;;;;;;7.15;100.00;99665.78;5039028;28;20036;-82
2024/03/11 03:21:49;;;;;;;52.53;40.83;;;;;;;7.21;100.00;99679.78;5044680;28;20479;-69
2024/03/11 03:24:14;;;;;;;51.97;41.10;;;;;;;7.21;100.00;99675.41;5044019;28;20048;-68
2024/03/11 03:26:40;;;;;;;52.75;40.50;;;;;;;7.23;100.00;99678.91;5044811;28;20485;-68
2024/03/11 03:29:06;;;;;;;53.75;42.35;;;;;;;7.24;100.00;99677.19;5045075;28;20486;-73
2024/03/11 03:31:32;;;;;;;51.08;41.13;;;;;;;7.23;100.00;99684.16;5042163;28;20021;-72
2024/03/11 03:33:58;;;;;;;51.33;40.95;;;;;;;7.22;100.00;99687.66;5046184;28;20032;-68
2024/03/11 03:36:23;;;;;;;51.35;40.05;;;;;;;7.17;100.00;99689.44;5041456;28;20037;-68
2024/03/11 03:38:49;;;;;;;51.50;40.40;;;;;;;7.13;100.00;99683.28;5046086;28;20033;-73
2024/03/11 03:41:14;;;;;;;51.05;39.45;;;;;;;7.17;100.00;99686.81;5044739;28;20021;-79
2024/03/11 03:43:40;;;;;;;50.80;39.17;;;;;;;7.13;100.00;99683.28;5045177;28;20038;-76
2024/03/11 03:46:06;;;;;;;52.47;41.60;;;;;;;7.16;100.00;99687.66;5044631;28;20115;-70
2024/03/11 03:48:31;;;;;;;53.50;42.70;;;;;;;7.11;100.00;99687.69;5043233;28;20044;-69
2024/03/11 03:50:57;;;;;;;54.35;42.92;;;;;;;7.05;100.00;99692.03;5045621;28;20078;-75
2024/03/11 03:53:23;;;;;;;55.17;42.80;;;;;;;7.00;100.00;99680.66;5042482;28;20079;-69
2024/03/11 03:55:49;;;;;;;55.72;43.53;;;;;;;6.92;100.00;99683.31;5045376;28;20033;-69
2024/03/11 03:58:15;;;;;;;54.83;43.35;;;;;;;6.87;100.00;99685.91;5043095;28;20033;-68
2024/03/11 04:00:40;;;;;;;56.67;44.80;;;;;;;6.76;100.00;99685.91;5044267;28;20076;-70
2024/03/11 04:03:06;;;;;;;55.70;43.72;;;;;;;6.72;100.00;99675.41;5045970;28;20117;-68
2024/03/11 04:05:32;;;;;;;57.17;45.13;;;;;;;6.70;100.00;99677.13;5044820;28;20502;-68
2024/03/11 04:07:58;;;;;;;58.35;45.33;;;;;;;6.68;100.00;99684.13;5040816;28;20036;-68
2024/03/11 04:10:23;;;;;;;56.60;45.63;;;;;;;6.68;100.00;99681.50;5044316;28;20036;-70
2024/03/11 04:12:52;;;;;;;58.58;46.33;;;;;;;6.67;100.00;99691.16;5041038;28;20032;-69
2024/03/11 04:15:21;;;;;;;59.08;47.33;;;;;;;6.65;100.00;99689.38;5045121;28;20433;-68
2024/03/11 04:17:47;;;;;;;59.55;47.42;;;;;;;6.61;100.00;99691.13;5042767;28;20064;-69
2024/03/11 04:20:13;;;;;;;61.00;47.28;;;;;;;6.62;100.00;99690.25;5042246;28;20041;-68
2024/03/11 04:22:50;;;;;;;62.10;47.92;;;;;;;6.61;100.00;99680.59;5043422;28;20039;-68
2024/03/11 04:25:22;;;;;;;61.95;48.92;;;;;;;6.55;100.00;99681.50;5044658;28;20028;-70
2024/03/11 04:27:50;;;;;;;63.67;49.33;;;;;;;6.54;100.00;99682.38;5042262;28;20033;-68
2024/03/11 04:30:19;;;;;;;63.17;50.08;;;;;;;6.54;100.00;99689.34;5044610;28;20060;-68
2024/03/11 04:32:51;;;;;;;68.20;50.38;;;;;;;6.50;100.00;99685.84;5043307;28;20171;-81
2024/03/11 04:35:32;;;;;;;67.57;52.13;;;;;;;6.52;100.00;99691.09;5045851;28;20104;-80
2024/03/11 04:38:05;;;;;;;67.28;51.20;;;;;;;6.47;100.00;99685.84;5042108;28;20028;-82
2024/03/11 04:40:36;;;;;;;65.40;50.55;;;;;;;6.51;100.00;99687.63;5044550;28;20040;-82
2024/03/11 04:43:02;;;;;;;69.25;52.35;;;;;;;6.51;100.00;99681.47;5045893;28;20037;-68
2024/03/11 04:45:29;;;;;;;68.97;52.78;;;;;;;6.50;100.00;99684.97;5041842;28;20033;-69
2024/03/11 04:47:57;;;;;;;71.70;54.65;;;;;;;6.47;100.00;99687.59;5044754;28;20029;-73
2024/03/11 04:50:26;;;;;;;72.63;53.38;;;;;;;6.45;100.00;99684.94;5041528;28;20028;-68
2024/03/11 04:52:57;;;;;;;76.00;54.72;;;;;;;6.48;100.00;99689.34;5045169;28;20446;-68
2024/03/11 04:55:23;;;;;;;75.80;56.28;;;;;;;6.45;100.00;99687.56;5041497;28;20029;-68
2024/03/11 04:57:49;;;;;;;75.97;56.05;;;;;;;6.49;100.00;99699.84;5044461;28;20037;-79
2024/03/11 05:00:15;;;;;;;76.72;55.90;;;;;;;6.46;100.00;99697.22;5039205;28;20461;-81
2024/03/11 05:02:41;;;;;;;76.20;55.30;;;;;;;6.46;100.00;99699.84;5042936;28;20036;-68
2024/03/11 05:05:08;;;;;;;81.68;57.08;;;;;;;6.45;100.00;99704.22;5042260;28;20026;-68
2024/03/11 05:07:34;;;;;;;76.57;55.25;;;;;;;6.48;100.00;99707.72;5042413;28;20035;-68
2024/03/11 05:09:59;;;;;;;74.10;55.08;;;;;;;6.49;100.00;99705.09;5041414;28;20038;-69
2024/03/11 05:12:25;;;;;;;74.82;55.85;;;;;;;6.48;100.00;99706.00;5044525;28;20486;-69
2024/03/11 05:14:50;;;;;;;76.75;55.63;;;;;;;6.47;100.00;99704.22;5041403;28;20056;-68
2024/03/11 05:17:16;;;;;;;78.03;57.38;;;;;;;6.49;100.00;99715.59;5043074;28;20387;-69
2024/03/11 05:19:41;;;;;;;80.10;57.88;;;;;;;6.48;100.00;99712.97;5042122;28;20041;-68
2024/03/11 05:22:07;;;;;;;81.15;57.08;;;;;;;6.50;100.00;99716.50;5042141;28;20388;-68
2024/03/11 05:24:32;;;;;;;85.15;58.65;;;;;;;6.44;100.00;99722.59;5043580;28;20063;-69
2024/03/11 05:26:58;;;;;;;84.20;57.50;;;;;;;6.41;100.00;99723.47;5039432;28;20041;-67
2024/03/11 05:29:23;;;;;;;90.78;60.30;;;;;;;6.39;100.00;99729.56;5043155;28;20040;-69
2024/03/11 05:31:48;;;;;;;89.25;59.72;;;;;;;6.36;100.00;99732.19;5040426;28;20486;-68
2024/03/11 05:34:15;;;;;;;96.10;61.63;;;;;;;6.38;100.00;99738.34;5042896;28;20037;-67
2024/03/11 05:36:40;;;;;;;94.07;62.88;;;;;;;6.35;100.00;99739.19;5042511;28;20017;-68
2024/03/11 05:39:08;;;;;;;96.72;64.07;;;;;;;6.33;100.00;99738.28;5040413;28;20038;-68
2024/03/11 05:41:37;;;;;;;101.22;63.72;;;;;;;6.35;100.00;99747.06;5042083;28;20025;-67
2024/03/11 05:44:03;;;;;;;101.13;64.60;;;;;;;6.40;100.00;99747.06;5041294;28;20498;-67
2024/03/11 05:46:28;;;;;;;99.15;65.45;;;;;;;6.38;100.00;99751.47;5043839;28;20495;-68
2024/03/11 05:48:55;;;;;;;108.55;68.68;;;;;;;6.36;100.00;99750.56;5040450;28;20025;-72
2024/03/11 05:51:20;;;;;;;108.78;67.32;;;;;;;6.37;100.00;99744.44;5044031;28;20136;-70
2024/03/11 05:53:48;;;;;;;109.80;70.05;;;;;;;6.35;100.00;99759.28;5041762;28;20100;-68
2024/03/11 05:56:19;;;;;;;97.45;65.65;;;;;;;6.42;100.00;99761.06;5042615;28;20376;-68
2024/03/11 05:58:45;;;;;;;115.28;71.32;;;;;;;6.41;100.00;99760.22;5041742;28;20033;-68
2024/03/11 06:01:11;;;;;;;106.43;68.78;;;;;;;6.44;100.00;99761.97;5041216;28;20030;-68
2024/03/11 06:03:36;;;;;;;101.35;69.10;;;;;;;6.39;100.00;99766.31;5043617;28;20075;-76
2024/03/11 06:06:03;;;;;;;119.35;71.38;;;;;;;6.38;100.00;99764.59;5041535;28;20048;-69
2024/03/11 06:08:28;;;;;;;110.40;69.88;;;;;;;6.35;100.00;99767.16;5043870;28;20060;-73
2024/03/11 06:10:54;;;;;;;111.80;72.55;;;;;;;6.35;100.00;99770.69;5040948;28;20061;-80
2024/03/11 06:13:21;;;;;;;110.55;69.82;;;;;;;6.36;100.00;99768.94;5044235;28;20430;-80
2024/03/11 06:15:46;;;;;;;113.38;71.63;;;;;;;6.37;100.00;99770.69;5042086;28;20026;-74
2024/03/11 06:18:12;;;;;;;106.40;70.45;;;;;;;6.37;100.00;99781.19;5040383;28;20049;-78
2024/03/11 06:20:37;;;;;;;121.55;73.07;;;;;;;6.35;100.00;99782.91;5041915;28;20053;-79
2024/03/11 06:23:04;;;;;;;116.25;73.82;;;;;;;6.36;100.00;99788.19;5043356;28;20128;-79
2024/03/11 06:25:31;;;;;;;109.80;70.82;;;;;;;6.32;100.00;99786.44;5040902;28;20033;-79
2024/03/11 06:27:56;;;;;;;118.72;73.40;;;;;;;6.32;100.00;99799.56;5042906;28;20041;-79
2024/03/11 06:30:22;;;;;;;116.63;73.28;;;;;;;6.33;100.00;99792.53;5039328;28;20124;-77
2024/03/11 06:32:51;;;;;;;109.72;72.68;;;;;;;6.32;100.00;99798.66;5042308;28;20357;-77
2024/03/11 06:35:17;;;;;;;124.43;75.45;;;;;;;6.35;100.00;99817.03;5041712;28;20025;-79
2024/03/11 06:37:43;;;;;;;108.30;70.28;;;;;;;6.36;100.00;99814.44;5042210;28;20053;-67
2024/03/11 06:40:10;;;;;;;111.22;70.45;;;;;;;6.37;100.00;99820.56;5042153;28;20099;-68
2024/03/11 06:42:36;;;;;;;115.55;73.50;;;;;;;6.34;100.00;99818.81;5041223;28;20033;-68
2024/03/11 06:45:01;;;;;;;107.70;70.93;;;;;;;6.35;100.00;99823.19;5045172;28;20061;-67
2024/03/11 06:47:27;;;;;;;114.63;73.93;;;;;;;6.33;100.00;99824.91;5043575;28;20172;-68
2024/03/11 06:49:52;;;;;;;108.57;72.18;;;;;;;6.36;100.00;99822.31;5047606;28;20033;-72
2024/03/11 06:52:18;;;;;;;107.25;70.32;;;;;;;6.37;100.00;99824.06;5046276;28;20033;-73
2024/03/11 06:54:44;;;;;;;115.07;72.28;;;;;;;6.36;100.00;99824.06;5045012;28;20394;-69
2024/03/11 06:57:10;;;;;;;115.68;73.65;;;;;;;6.32;100.00;99827.53;5043877;28;20034;-73
2024/03/11 06:59:35;;;;;;;112.45;70.43;;;;;;;6.41;100.00;99832.84;5045887;28;20052;-69
2024/03/11 07:02:01;;;;;;;111.93;71.55;;;;;;;6.40;100.00;99836.34;5043557;28;20084;-68
2024/03/11 07:04:27;;;;;;;108.45;69.78;;;;;;;6.40;100.00;99836.34;5046741;28;20029;-67
2024/03/11 07:06:52;;;;;;;105.85;69.40;;;;;;;6.39;100.00;99835.47;5043494;28;20029;-67
2024/03/11 07:09:18;;;;;;;111.53;71.28;;;;;;;6.40;100.00;99826.69;5045656;28;20035;-68
2024/03/11 07:11:44;;;;;;;105.15;69.22;;;;;;;6.39;100.00;99832.84;5043349;28;20032;-70
2024/03/11 07:14:13;;;;;;;111.85;68.90;;;;;;;6.40;100.00;99834.59;5044459;28;20396;-74
2024/03/11 07:16:43;;;;;;;107.38;69.80;;;;;;;6.42;100.00;99834.59;5045278;28;20029;-72
2024/03/11 07:19:12;;;;;;;104.38;66.65;;;;;;;6.45;100.00;99832.88;5044216;28;20037;-73
2024/03/11 07:21:38;;;;;;;100.72;67.00;;;;;;;6.41;100.00;99833.72;5045056;28;20399;-71
2024/03/11 07:24:05;;;;;;;101.88;66.40;;;;;;;6.47;100.00;99832.88;5043805;28;20116;-68
2024/03/11 07:26:31;;;;;;;103.22;65.25;;;;;;;6.49;100.00;99846.00;5046056;28;20036;-67
2024/03/11 07:28:56;;;;;;;99.30;64.10;;;;;;;6.51;100.00;99834.66;5042700;28;20104;-68
2024/03/11 07:31:22;;;;;;;99.18;63.15;;;;;;;6.51;100.00;99839.91;5045995;28;20112;-68
2024/03/11 07:33:50;;;;;;;97.72;62.30;;;;;;;6.54;100.00;99842.53;5043580;28;20033;-70
2024/03/11 07:36:16;;;;;;;101.35;63.95;;;;;;;6.57;100.00;99847.81;5044882;28;20034;-69
2024/03/11 07:38:44;;;;;;;103.05;64.72;;;;;;;6.61;100.00;99854.84;5044572;28;20094;-68
2024/03/11 07:41:10;;;;;;;95.30;60.88;;;;;;;6.65;100.00;99852.22;5044603;28;20551;-75
2024/03/11 07:43:36;;;;;;;96.82;60.80;;;;;;;6.63;100.00;99855.72;5045537;28;20117;-77
2024/03/11 07:46:03;;;;;;;94.22;61.30;;;;;;;6.63;100.00;99863.59;5043561;28;20464;-75
2024/03/11 07:48:30;;;;;;;95.78;61.47;;;;;;;6.62;100.00;99856.56;5045894;28;20041;-78
2024/03/11 07:50:55;;;;;;;95.10;60.90;;;;;;;6.68;100.00;99865.34;5038919;28;20041;-72
2024/03/11 07:53:21;;;;;;;91.03;59.53;;;;;;;6.69;100.00;99856.63;5045748;28;20029;-79
2024/03/11 07:55:47;;;;;;;93.20;59.65;;;;;;;6.69;100.00;99854.00;5041976;28;20033;-80
2024/03/11 07:58:14;;;;;;;91.88;60.88;;;;;;;6.67;100.00;99859.25;5044287;28;20030;-74
2024/03/11 08:00:39;;;;;;;91.88;58.30;;;;;;;6.71;100.00;99868.00;5044843;28;20167;-73
2024/03/11 08:03:05;;;;;;;90.75;58.25;;;;;;;6.71;100.00;99870.63;5042937;28;20104;-71
2024/03/11 08:05:30;;;;;;;92.32;58.85;;;;;;;6.71;100.00;99875.88;5044503;28;20040;-77
2024/03/11 08:07:58;;;;;;;88.25;57.55;;;;;;;6.71;100.00;99873.25;5045907;28;20438;-79
2024/03/11 08:10:25;;;;;;;88.78;57.03;;;;;;;6.72;100.00;99868.00;5042509;28;20057;-73
2024/03/11 08:12:51;;;;;;;87.38;56.25;;;;;;;6.63;100.00;99866.22;5044379;28;20384;-78
2024/03/11 08:15:17;;;;;;;88.97;56.15;;;;;;;6.72;100.00;99868.00;5043489;28;20031;-77
2024/03/11 08:17:47;;;;;;;81.10;53.65;;;;;;;6.68;100.00;99868.84;5043848;28;20029;-75
2024/03/11 08:20:17;;;;;;;81.97;53.15;;;;;;;6.71;100.00;99870.63;5025522;28;20049;-69
2024/03/11 08:22:45;;;;;;;76.75;51.70;;;;;;;6.72;100.00;99869.75;5042669;28;20083;-68
2024/03/11 08:25:11;;;;;;;75.78;51.13;;;;;;;6.67;100.00;99868.84;5043564;28;20029;-70
2024/03/11 08:27:40;;;;;;;79.00;52.35;;;;;;;6.70;100.00;99871.47;5042497;28;20102;-68
2024/03/11 08:30:09;;;;;;;75.43;50.65;;;;;;;6.74;100.00;99871.53;5044438;28;20039;-68
2024/03/11 08:32:38;;;;;;;74.97;52.88;;;;;;;6.75;100.00;99875.88;5042289;28;20026;-71
2024/03/11 08:35:05;;;;;;;76.60;51.10;;;;;;;6.78;100.00;99878.53;5044369;28;20048;-69
2024/03/11 08:37:30;;;;;;;73.22;50.83;;;;;;;6.83;100.00;99873.31;5041456;28;20030;-69
2024/03/11 08:39:56;;;;;;;67.90;49.25;;;;;;;6.83;100.00;99886.44;5045063;28;20052;-68
2024/03/11 08:42:23;;;;;;;68.22;48.10;;;;;;;6.86;100.00;99883.84;5041788;28;20034;-68
2024/03/11 08:44:50;;;;;;;69.15;48.85;;;;;;;6.80;100.00;99881.16;5043792;28;20030;-67
2024/03/11 08:47:16;;;;;;;66.80;47.45;;;;;;;6.76;100.00;99880.28;5042787;28;20033;-68
2024/03/11 08:49:44;;;;;;;68.82;49.40;;;;;;;6.75;100.00;99888.16;5042855;28;20033;-67
2024/03/11 08:52:12;;;;;;;74.03;48.70;;;;;;;6.67;100.00;99888.13;5043318;28;20086;-68
2024/03/11 08:54:40;;;;;;;72.45;51.25;;;;;;;6.70;100.00;99884.63;5042464;28;20029;-69
2024/03/11 08:57:05;;;;;;;75.25;50.78;;;;;;;6.65;100.00;99889.84;5042675;28;20531;-67
2024/03/11 08:59:31;;;;;;;72.10;50.53;;;;;;;6.69;100.00;99885.50;5041206;28;20096;-74
2024/03/11 09:01:57;;;;;;;70.07;48.42;;;;;;;6.78;100.00;99889.03;5044673;28;20029;-72
2024/03/11 09:04:26;;;;;;;75.32;51.45;;;;;;;6.79;100.00;99897.81;5041276;28;20025;-70
2024/03/11 09:06:54;;;;;;;71.43;49.03;;;;;;;6.85;100.00;99887.31;5043059;28;20029;-69
2024/03/11 09:09:24;;;;;;;72.10;48.63;;;;;;;6.82;100.00;99889.94;5041990;28;20037;-72
2024/03/11 09:11:56;;;;;;;68.28;47.38;;;;;;;6.74;100.00;99889.91;5043775;28;20109;-72
2024/03/11 09:14:31;;;;;;;66.47;48.45;;;;;;;6.78;100.00;99890.78;5041810;28;20055;-79
2024/03/11 09:17:01;;;;;;;62.78;44.90;;;;;;;6.83;100.00;99898.69;5036098;28;20022;-69
2024/03/11 09:19:33;;;;;;;62.95;46.22;;;;;;;6.84;100.00;99895.19;5037313;28;20033;-69
2024/03/11 09:21:58;;;;;;;64.93;46.42;;;;;;;6.73;100.00;99901.28;5037202;28;20570;-67
2024/03/11 09:24:25;;;;;;;63.80;46.28;;;;;;;6.76;100.00;99900.44;5043833;28;20037;-67
2024/03/11 09:26:51;;;;;;;70.45;48.95;;;;;;;6.78;100.00;99896.91;5044350;28;20075;-67
2024/03/11 09:29:21;;;;;;;66.10;47.33;;;;;;;6.77;100.00;99910.03;5041693;28;20120;-66
2024/03/11 09:31:47;;;;;;;71.05;48.13;;;;;;;6.80;100.00;99910.06;5041706;28;20025;-67
2024/03/11 09:34:13;;;;;;;67.38;47.53;;;;;;;6.86;100.00;99920.63;5042653;28;20468;-69
2024/03/11 09:36:39;;;;;;;65.10;47.83;;;;;;;6.79;100.00;99913.56;5041849;28;20080;-79
2024/03/11 09:39:06;;;;;;;65.82;47.08;;;;;;;6.80;100.00;99918.84;5043280;28;20021;-77
2024/03/11 09:41:41;;;;;;;65.95;46.45;;;;;;;6.89;100.00;99928.50;5034728;28;20029;-68
2024/03/11 09:44:17;;;;;;;65.03;46.80;;;;;;;6.90;100.00;99926.75;5040359;28;20039;-67
2024/03/11 09:46:45;;;;;;;69.63;46.85;;;;;;;6.91;100.00;99933.78;5043634;28;20027;-67
2024/03/11 09:49:14;;;;;;;68.35;48.25;;;;;;;6.95;100.00;99939.03;5038960;28;20375;-68
2024/03/11 09:51:45;;;;;;;63.42;46.47;;;;;;;7.05;100.00;99937.34;5040744;28;20036;-69
2024/03/11 09:54:13;;;;;;;68.05;47.35;;;;;;;7.02;100.00;99937.34;5043998;28;20024;-72
2024/03/11 09:56:47;;;;;;;67.80;48.42;;;;;;;7.05;100.00;99947.84;5041804;28;20365;-67
2024/03/11 09:59:18;;;;;;;65.97;46.70;;;;;;;7.11;100.00;99950.50;5036983;28;20029;-68
2024/03/11 10:01:52;;;;;;;65.57;45.00;;;;;;;7.15;100.00;99952.28;5044373;28;20051;-67
2024/03/11 10:04:20;;;;;;;65.05;46.03;;;;;;;7.17;100.00;99954.03;5037871;28;20065;-67
2024/03/11 10:07:08;;;;;;;64.05;46.45;;;;;;;7.21;100.00;99955.78;5043756;28;20029;-69
2024/03/11 10:09:44;;;;;;;63.97;45.53;;;;;;;7.21;100.00;99954.06;5042556;28;20029;-69
2024/03/11 10:12:10;;;;;;;66.85;47.95;;;;;;;7.27;100.00;99948.81;5039443;28;20064;-69
2024/03/11 10:14:38;;;;;;;63.15;45.20;;;;;;;7.25;100.00;99961.09;5040374;28;20026;-68
2024/03/11 10:17:20;;;;;;;62.47;45.08;;;;;;;7.33;100.00;99958.47;5042732;28;20092;-69
2024/03/11 10:19:47;;;;;;;64.00;45.10;;;;;;;7.38;100.00;99969.00;5038529;28;20021;-70
2024/03/11 10:22:21;;;;;;;61.17;45.03;;;;;;;7.32;100.00;99968.13;5040000;28;20025;-69
2024/03/11 10:24:47;;;;;;;63.08;45.08;;;;;;;7.31;100.00;99969.00;5047366;28;20555;-69
2024/03/11 10:27:23;;;;;;;60.78;44.85;;;;;;;7.37;100.00;99975.13;5040005;28;20120;-68
2024/03/11 10:29:54;;;;;;;64.28;46.78;;;;;;;7.39;100.00;99970.78;5041026;28;20164;-66
2024/03/11 10:32:42;;;;;;;61.28;45.42;;;;;;;7.44;100.00;99974.28;5045487;28;20078;-68
2024/03/11 10:35:09;;;;;;;64.05;45.92;;;;;;;7.39;100.00;99974.25;5043999;28;20037;-67
2024/03/11 10:37:39;;;;;;;66.57;46.80;;;;;;;7.39;100.00;99981.28;5046781;28;20033;-67
2024/03/11 10:40:10;;;;;;;62.47;46.75;;;;;;;7.36;100.00;99982.16;5044170;28;20033;-66
2024/03/11 10:42:37;;;;;;;61.40;46.28;;;;;;;7.36;100.00;99986.53;5046580;28;20083;-66
2024/03/11 10:45:05;;;;;;;62.35;46.47;;;;;;;7.22;100.00;99982.06;5044131;28;20052;-68
2024/03/11 10:47:31;;;;;;;64.35;45.60;;;;;;;7.28;100.00;99992.66;5046181;28;20029;-67
2024/03/11 10:50:00;;;;;;;65.35;47.53;;;;;;;7.33;100.00;99987.41;5044920;28;20025;-67
2024/03/11 10:52:30;;;;;;;64.32;45.50;;;;;;;7.35;100.00;99997.91;5045418;28;20060;-68
2024/03/11 10:54:59;;;;;;;64.57;46.63;;;;;;;7.38;100.00;99997.94;5045073;28;20533;-69
2024/03/11 10:57:35;;;;;;;63.13;45.95;;;;;;;7.36;100.00;100004.94;5043651;28;20112;-67
2024/03/11 11:02:44;;;;;;;64.72;44.97;;;;;;;7.36;100.00;99994.44;5039178;28;20127;-71
2024/03/11 11:05:12;;;;;;;58.15;43.08;;;;;;;7.35;100.00;100000.56;5047063;28;20036;-70
2024/03/11 11:07:42;;;;;;;61.17;44.03;;;;;;;7.33;100.00;100003.19;5043376;28;20037;-69
2024/03/11 11:10:11;;;;;;;58.78;43.00;;;;;;;7.32;100.00;100004.94;5046352;28;20104;-68
2024/03/11 11:12:37;;;;;;;60.90;44.75;;;;;;;7.20;100.00;99999.59;5042016;28;20075;-68
2024/03/11 11:15:12;;;;;;;59.03;45.00;;;;;;;7.21;100.00;100000.47;5046311;28;20116;-67
2024/03/11 11:17:41;;;;;;;60.50;43.33;;;;;;;7.30;100.00;100011.06;5042255;28;20112;-78
2024/03/11 11:20:29;;;;;;;63.13;45.05;;;;;;;7.40;100.00;100011.97;5046066;28;20033;-73